Time;durP1;ratioP1;P1;durP2;ratioP2;P2;SDS_P1;SDS_P2;PMS_P1;PMS_P2;Temp;Humidity;BMP_temperature;BMP_pressure;BME280_temperature;BME280_humidity;BME280_pressure;Samples;Min_cycle;Max_cycle;Signal;HPM_P1;HPM_P2
2023/09/03 00:00:14;;;;;;;14.50;9.20;;;;;;;13.44;85.55;101244.95;105645;1260;101384;-85
2023/09/03 00:03:19;;;;;;;15.50;9.00;;;;;;;13.40;85.64;101248.30;105756;1261;102248;-86
2023/09/03 00:06:05;;;;;;;12.90;8.20;;;;;;;13.36;85.86;101246.96;105726;1261;98565;-84
2023/09/03 00:08:51;;;;;;;13.10;8.30;;;;;;;13.34;85.79;101246.06;105649;1266;98167;-84
2023/09/03 00:11:36;;;;;;;12.10;9.40;;;;;;;13.30;85.65;101249.84;105773;1261;97890;-83
2023/09/03 00:14:21;;;;;;;14.30;7.80;;;;;;;13.27;86.04;101246.86;105807;1264;101349;-84
2023/09/03 00:17:10;;;;;;;10.90;8.10;;;;;;;13.23;85.89;101244.36;105836;1261;99352;-84
2023/09/03 00:19:56;;;;;;;14.40;8.80;;;;;;;13.18;85.85;101244.77;105582;1262;98643;-84
2023/09/03 00:22:42;;;;;;;10.00;8.30;;;;;;;13.16;86.00;101245.36;105854;1261;98473;-84
2023/09/03 00:25:28;;;;;;;14.00;9.90;;;;;;;13.17;86.31;101247.98;105762;1261;98080;-83
2023/09/03 00:28:13;;;;;;;17.70;11.70;;;;;;;13.18;86.77;101248.86;105544;1264;102639;-84
2023/09/03 00:31:09;;;;;;;17.00;11.80;;;;;;;13.21;87.11;101249.10;105809;1267;100352;-85
2023/09/03 00:33:55;;;;;;;16.10;11.60;;;;;;;13.22;86.82;101250.26;105785;1264;97977;-83
2023/09/03 00:36:40;;;;;;;18.70;10.60;;;;;;;13.15;86.71;101250.42;105716;1264;98650;-84
2023/09/03 00:39:26;;;;;;;16.10;8.20;;;;;;;13.09;86.67;101250.66;105832;1265;97957;-83
2023/09/03 00:42:11;;;;;;;13.20;8.80;;;;;;;13.05;86.80;101251.54;105826;1261;101690;-83
2023/09/03 00:44:56;;;;;;;16.10;9.60;;;;;;;13.01;86.55;101251.27;105612;1261;153339;-83
2023/09/03 00:47:42;;;;;;;16.80;9.40;;;;;;;12.96;86.45;101248.29;105785;1262;99607;-83
2023/09/03 00:50:29;;;;;;;12.20;9.30;;;;;;;12.92;86.50;101248.08;105778;1261;97978;-84
2023/09/03 00:53:16;;;;;;;13.90;8.90;;;;;;;12.90;86.82;101246.59;105893;1260;97604;-83
2023/09/03 00:56:02;;;;;;;15.40;9.80;;;;;;;12.87;86.89;101246.91;105789;1267;102242;-83
2023/09/03 00:58:49;;;;;;;11.60;8.20;;;;;;;12.85;86.81;101250.07;105757;1265;99707;-83
2023/09/03 01:01:36;;;;;;;14.50;7.80;;;;;;;12.79;86.50;101249.20;105629;1264;98058;-82
2023/09/03 01:04:21;;;;;;;12.40;6.40;;;;;;;12.69;86.26;101248.36;105590;1261;98070;-84
2023/09/03 01:07:09;;;;;;;9.60;6.90;;;;;;;12.62;86.58;101245.55;105798;1262;99673;-83
2023/09/03 01:09:54;;;;;;;8.70;6.70;;;;;;;12.57;86.74;101246.81;105931;1264;101448;-83
2023/09/03 01:12:51;;;;;;;11.30;6.50;;;;;;;12.54;86.62;101246.33;105839;1261;101214;-83
2023/09/03 01:15:41;;;;;;;8.00;6.10;;;;;;;12.51;86.53;101248.46;105724;1261;97984;-83
2023/09/03 01:18:28;;;;;;;12.00;7.20;;;;;;;12.49;86.77;101248.55;105721;1260;98274;-83
2023/09/03 01:21:34;;;;;;;11.10;7.70;;;;;;;12.50;87.12;101249.73;105768;1264;97923;-83
2023/09/03 01:24:35;;;;;;;12.70;9.00;;;;;;;12.53;87.45;101246.98;105496;1264;101413;-84
2023/09/03 01:27:57;;;;;;;14.90;9.30;;;;;;;12.57;87.66;101246.55;105847;1264;99190;-83
2023/09/03 01:30:43;;;;;;;14.30;9.40;;;;;;;12.60;88.10;101244.23;105782;1262;97945;-83
2023/09/03 01:33:31;;;;;;;15.70;9.40;;;;;;;12.60;88.08;101246.68;105705;1260;97972;-83
2023/09/03 01:36:18;;;;;;;12.60;8.50;;;;;;;12.60;88.08;101252.19;105895;1260;97843;-84
2023/09/03 01:39:04;;;;;;;13.40;8.60;;;;;;;12.58;87.86;101251.75;105679;1264;101412;-83
2023/09/03 01:41:49;;;;;;;16.80;9.70;;;;;;;12.56;87.97;101253.21;105743;1261;99185;-83
2023/09/03 01:44:36;;;;;;;14.20;8.20;;;;;;;12.53;87.79;101252.92;105924;1260;98524;-83
2023/09/03 01:47:32;;;;;;;12.20;8.40;;;;;;;12.49;87.49;101252.31;105779;1260;98226;-83
2023/09/03 01:50:23;;;;;;;10.40;7.40;;;;;;;12.44;87.62;101250.04;105640;1261;98503;-84
2023/09/03 01:53:24;;;;;;;11.10;8.60;;;;;;;12.39;87.47;101246.46;105794;1265;102721;-83
2023/09/03 01:56:13;;;;;;;10.50;7.40;;;;;;;12.35;87.31;101249.11;105677;1264;99162;-83
2023/09/03 01:59:06;;;;;;;11.50;8.40;;;;;;;12.32;87.53;101245.05;105856;1261;98363;-83
2023/09/03 02:01:52;;;;;;;9.40;6.80;;;;;;;12.28;87.56;101236.15;105523;1269;98042;-83
2023/09/03 02:04:37;;;;;;;12.10;7.20;;;;;;;12.21;87.18;101231.45;105739;1266;99685;-83
2023/09/03 02:07:24;;;;;;;9.70;6.70;;;;;;;12.16;87.21;101226.20;105614;1261;101350;-83
2023/09/03 02:10:10;;;;;;;14.00;8.20;;;;;;;12.15;87.50;101223.81;106223;1260;99182;-83
2023/09/03 02:12:56;;;;;;;12.20;8.80;;;;;;;12.13;87.79;101221.56;105575;1261;99154;-83
2023/09/03 02:15:42;;;;;;;13.10;8.70;;;;;;;12.12;87.83;101220.19;105510;1270;98389;-83
2023/09/03 02:18:28;;;;;;;10.10;8.50;;;;;;;12.12;88.00;101217.70;105846;1260;98071;-83
2023/09/03 02:21:13;;;;;;;13.90;9.40;;;;;;;12.10;88.10;101216.82;105494;1270;101437;-83
2023/09/03 02:23:59;;;;;;;16.80;9.20;;;;;;;12.09;87.90;101211.05;105792;1261;100560;-85
2023/09/03 02:26:46;;;;;;;14.60;8.40;;;;;;;12.08;87.90;101209.05;105696;1260;97977;-84
2023/09/03 02:29:31;;;;;;;11.90;8.90;;;;;;;12.04;87.92;101208.31;105607;1261;97966;-83
2023/09/03 02:32:16;;;;;;;13.00;8.40;;;;;;;12.00;87.94;101206.11;105768;1260;98073;-83
2023/09/03 02:35:03;;;;;;;11.80;8.90;;;;;;;11.97;88.00;101197.73;105607;1260;101493;-84
2023/09/03 02:37:48;;;;;;;11.20;9.00;;;;;;;11.97;88.12;101193.45;105806;1261;99884;-83
2023/09/03 02:40:34;;;;;;;12.50;9.10;;;;;;;11.97;88.57;101189.61;105674;1260;99015;-83
2023/09/03 02:43:19;;;;;;;12.40;9.80;;;;;;;11.98;88.81;101187.70;105805;1266;97880;-83
2023/09/03 02:46:05;;;;;;;15.30;9.80;;;;;;;11.98;88.61;101186.66;105945;1264;98420;-83
2023/09/03 02:48:51;;;;;;;17.10;9.50;;;;;;;11.95;88.68;101183.55;105573;1264;102741;-84
2023/09/03 02:51:37;;;;;;;12.90;8.90;;;;;;;11.93;88.32;101181.49;105871;1261;100370;-83
2023/09/03 02:54:23;;;;;;;12.60;9.60;;;;;;;11.89;88.15;101179.85;105799;1264;97876;-84
2023/09/03 02:57:09;;;;;;;13.80;9.50;;;;;;;11.86;88.40;101178.23;105797;1267;97914;-83
2023/09/03 02:59:54;;;;;;;12.10;9.50;;;;;;;11.83;88.33;101179.88;105798;1264;98077;-83
2023/09/03 03:02:41;;;;;;;17.50;10.80;;;;;;;11.82;88.67;101176.35;105746;1262;101449;-83
2023/09/03 03:05:26;;;;;;;14.90;10.30;;;;;;;11.84;88.82;101175.13;105805;1264;100369;-82
2023/09/03 03:08:12;;;;;;;13.60;9.70;;;;;;;11.83;88.84;101171.77;105701;1266;99613;-84
2023/09/03 03:11:09;;;;;;;12.20;8.60;;;;;;;11.81;88.46;101171.73;105814;1261;99109;-83
2023/09/03 03:13:55;;;;;;;9.50;7.60;;;;;;;11.76;88.55;101177.89;105535;1263;98160;-83
2023/09/03 03:16:43;;;;;;;12.90;8.30;;;;;;;11.71;88.42;101184.51;106018;1262;102010;-83
2023/09/03 03:19:31;;;;;;;12.90;9.20;;;;;;;11.69;88.78;101187.30;105596;1262;100404;-83
2023/09/03 03:22:17;;;;;;;13.20;8.50;;;;;;;11.67;89.18;101189.97;105735;1267;99270;-83
2023/09/03 03:25:02;;;;;;;12.00;8.40;;;;;;;11.65;88.95;101187.33;105866;1261;98023;-83
2023/09/03 03:27:48;;;;;;;16.90;10.90;;;;;;;11.65;88.82;101185.92;105760;1264;99644;-83
2023/09/03 03:30:34;;;;;;;14.20;11.80;;;;;;;11.67;89.35;101188.88;105774;1264;102636;-83
2023/09/03 03:33:19;;;;;;;15.90;11.90;;;;;;;11.71;89.97;101187.96;105707;1258;99111;-83
2023/09/03 03:36:06;;;;;;;15.90;11.80;;;;;;;11.75;90.43;101191.61;105609;1261;99655;-83
2023/09/03 03:38:52;;;;;;;19.70;12.20;;;;;;;11.76;90.73;101190.13;105804;1267;97902;-83
2023/09/03 03:41:39;;;;;;;16.70;12.70;;;;;;;11.77;90.94;101188.48;105798;1262;98081;-83
2023/09/03 03:44:27;;;;;;;15.10;11.60;;;;;;;11.78;91.10;101192.30;105686;1267;102194;-83
2023/09/03 03:47:12;;;;;;;18.10;12.00;;;;;;;11.78;90.99;101192.05;105879;1260;99160;-83
2023/09/03 03:49:58;;;;;;;15.20;11.40;;;;;;;11.77;90.72;101194.84;105665;1262;98417;-82
2023/09/03 03:52:45;;;;;;;13.70;9.80;;;;;;;11.72;90.30;101198.21;105829;1264;97938;-83
2023/09/03 03:55:30;;;;;;;16.90;9.90;;;;;;;11.64;89.97;101205.08;105825;1267;98426;-83
2023/09/03 03:58:16;;;;;;;11.90;8.80;;;;;;;11.59;89.57;101208.04;105742;1264;101347;-83
2023/09/03 04:01:16;;;;;;;12.90;9.70;;;;;;;11.54;89.73;101211.13;105785;1261;99942;-84
2023/09/03 04:04:02;;;;;;;11.40;9.60;;;;;;;11.53;89.98;101213.45;105730;1268;98449;-85
2023/09/03 04:06:48;;;;;;;12.60;9.70;;;;;;;11.54;90.31;101212.07;105904;1261;97988;-84
2023/09/03 04:09:35;;;;;;;17.10;10.10;;;;;;;11.53;90.18;101215.02;105594;1267;97866;-82
2023/09/03 04:12:21;;;;;;;12.10;8.90;;;;;;;11.50;89.86;101224.83;105620;1261;102710;-83
2023/09/03 04:15:07;;;;;;;15.80;7.80;;;;;;;11.46;89.40;101235.48;105781;1264;99740;-82
2023/09/03 04:17:52;;;;;;;11.60;7.70;;;;;;;11.41;89.09;101236.82;105617;1261;98697;-83
2023/09/03 04:20:39;;;;;;;8.80;7.00;;;;;;;11.34;89.08;101238.84;105720;1260;97921;-84
2023/09/03 04:23:25;;;;;;;10.60;7.60;;;;;;;11.32;89.98;101238.24;105870;1263;98477;-83
2023/09/03 04:26:11;;;;;;;14.10;9.60;;;;;;;11.33;90.76;101247.09;105651;1261;110071;-84
2023/09/03 04:29:07;;;;;;;13.20;9.90;;;;;;;11.34;91.32;101253.20;105712;1260;100506;-84
2023/09/03 04:31:53;;;;;;;13.80;7.50;;;;;;;11.37;91.65;101257.00;105856;1260;99075;-83
2023/09/03 04:34:38;;;;;;;11.50;7.20;;;;;;;11.39;91.50;101259.23;105816;1261;97993;-84
2023/09/03 04:37:25;;;;;;;9.10;6.70;;;;;;;11.40;91.32;101263.61;105805;1264;98144;-83
2023/09/03 04:40:11;;;;;;;14.10;9.90;;;;;;;11.40;91.82;101261.07;105713;1262;101333;-84
2023/09/03 04:42:57;;;;;;;10.30;9.10;;;;;;;11.43;92.15;101268.27;105569;1261;99175;-84
2023/09/03 04:45:48;;;;;;;13.90;9.80;;;;;;;11.46;92.29;101266.34;105812;1264;99166;-84
2023/09/03 04:48:34;;;;;;;10.60;8.80;;;;;;;11.48;92.59;101262.09;105688;1262;98053;-84
2023/09/03 04:51:19;;;;;;;13.60;9.80;;;;;;;11.51;92.71;101265.68;105812;1267;98486;-83
2023/09/03 04:54:05;;;;;;;13.10;9.40;;;;;;;11.55;93.00;101262.23;105934;1262;101418;-83
2023/09/03 04:56:53;;;;;;;13.80;10.10;;;;;;;11.58;93.35;101258.38;105796;1262;99240;-83
2023/09/03 04:59:38;;;;;;;13.70;9.90;;;;;;;11.63;93.74;101255.54;105586;1266;98010;-83
2023/09/03 05:02:24;;;;;;;14.80;11.50;;;;;;;11.67;93.82;101253.28;105588;1262;98067;-83
2023/09/03 05:05:11;;;;;;;17.60;10.80;;;;;;;11.72;94.00;101250.11;105667;1266;98618;-83
2023/09/03 05:07:57;;;;;;;13.40;10.20;;;;;;;11.75;93.84;101244.21;105428;1264;101462;-83
2023/09/03 05:10:43;;;;;;;14.40;10.70;;;;;;;11.77;94.31;101239.98;105769;1264;99700;-83
2023/09/03 05:13:31;;;;;;;11.10;8.40;;;;;;;11.81;94.57;101242.57;105491;1270;99053;-83
2023/09/03 05:16:16;;;;;;;12.60;8.50;;;;;;;11.84;94.58;101241.30;105764;1266;98088;-83
2023/09/03 05:19:07;;;;;;;10.00;9.00;;;;;;;11.87;94.75;101235.91;105653;1267;98666;-83
2023/09/03 05:21:53;;;;;;;;;;;;;;;11.91;94.77;101236.38;105663;1260;102361;-84
2023/09/03 05:24:39;;;;;;;9.30;7.80;;;;;;;11.92;94.81;101234.65;105881;1275;99335;-83
2023/09/03 05:27:28;;;;;;;14.10;8.30;;;;;;;11.94;95.01;101233.64;105680;1267;98790;-83
2023/09/03 05:30:14;;;;;;;18.70;13.30;;;;;;;11.98;95.21;101234.21;105856;1266;98010;-83
2023/09/03 05:33:00;;;;;;;15.40;12.40;;;;;;;12.04;96.01;101236.56;105832;1264;98404;-83
2023/09/03 05:35:47;;;;;;;13.40;11.20;;;;;;;12.11;96.66;101243.80;105933;1267;101555;-84
2023/09/03 05:38:33;;;;;;;14.90;11.70;;;;;;;12.20;97.28;101244.37;105650;1266;100690;-82
2023/09/03 05:41:19;;;;;;;12.60;11.30;;;;;;;12.28;98.13;101241.61;105754;1261;97759;-83
2023/09/03 05:44:09;;;;;;;15.10;12.30;;;;;;;12.37;98.24;101242.45;105828;1267;97880;-84
2023/09/03 05:46:56;;;;;;;19.50;13.50;;;;;;;12.47;98.65;101246.91;105965;1265;97943;-84
2023/09/03 05:49:42;;;;;;;14.10;12.50;;;;;;;12.57;99.75;101254.78;105699;1266;101587;-83
2023/09/03 05:52:28;;;;;;;17.20;14.90;;;;;;;12.64;99.80;101258.41;105835;1262;99184;-84
2023/09/03 05:55:14;;;;;;;17.70;14.00;;;;;;;12.70;99.75;101258.54;105848;1267;97926;-84
2023/09/03 05:58:00;;;;;;;22.60;15.50;;;;;;;12.76;99.99;101258.64;105693;1269;97969;-84
2023/09/03 06:00:46;;;;;;;20.00;16.30;;;;;;;12.84;100.00;101260.16;105876;1264;97758;-84
2023/09/03 06:03:32;;;;;;;20.20;15.90;;;;;;;12.94;100.00;101265.63;105811;1264;110109;-85
2023/09/03 06:06:18;;;;;;;20.60;16.10;;;;;;;13.02;100.00;101265.84;105930;1264;100209;-85
2023/09/03 06:09:06;;;;;;;20.80;16.50;;;;;;;13.15;100.00;101273.67;105813;1265;97984;-84
2023/09/03 06:11:52;;;;;;;21.10;16.90;;;;;;;13.27;100.00;101275.05;105728;1267;97976;-84
2023/09/03 06:14:38;;;;;;;18.40;15.10;;;;;;;13.40;100.00;101277.73;106241;1270;97911;-85
2023/09/03 06:17:24;;;;;;;20.30;16.30;;;;;;;13.54;100.00;101277.98;105911;1267;102956;-84
2023/09/03 06:20:10;;;;;;;23.20;16.50;;;;;;;13.65;100.00;101275.99;105656;1266;99246;-84
2023/09/03 06:22:55;;;;;;;18.90;15.40;;;;;;;13.78;100.00;101278.34;105834;1260;98000;-83
2023/09/03 06:25:42;;;;;;;17.90;14.20;;;;;;;13.91;100.00;101276.78;105837;1265;98060;-83
2023/09/03 06:28:28;;;;;;;19.50;15.30;;;;;;;14.05;100.00;101277.95;105935;1264;98428;-84
2023/09/03 06:31:18;;;;;;;19.20;14.20;;;;;;;14.19;100.00;101281.35;107356;1258;102416;-84
2023/09/03 06:34:04;;;;;;;18.10;14.50;;;;;;;14.32;100.00;101280.46;106004;1265;100811;-84
2023/09/03 06:36:50;;;;;;;22.10;15.20;;;;;;;14.46;100.00;101280.06;105773;1264;98416;-85
2023/09/03 06:39:36;;;;;;;17.50;13.50;;;;;;;14.59;100.00;101278.36;105567;1264;98060;-84
2023/09/03 06:42:22;;;;;;;14.80;12.00;;;;;;;14.73;100.00;101276.80;105715;1264;97808;-84
2023/09/03 06:45:09;;;;;;;18.80;12.20;;;;;;;14.86;100.00;101281.38;105819;1257;101413;-85
2023/09/03 06:47:54;;;;;;;14.10;10.70;;;;;;;14.99;100.00;101285.59;105822;1263;100585;-83
2023/09/03 06:50:41;;;;;;;15.80;10.90;;;;;;;15.14;100.00;101290.29;105738;1257;98356;-83
2023/09/03 06:53:29;;;;;;;13.00;9.60;;;;;;;15.29;100.00;101288.80;105881;1260;98025;-84
2023/09/03 06:56:15;;;;;;;13.90;9.70;;;;;;;15.44;100.00;101295.23;105672;1267;99555;-83
2023/09/03 06:59:00;;;;;;;14.00;8.90;;;;;;;15.57;100.00;101292.80;105639;1260;110446;-85
2023/09/03 07:01:45;;;;;;;14.40;8.80;;;;;;;15.68;100.00;101293.28;105696;1260;100417;-85
2023/09/03 07:04:31;;;;;;;14.20;8.40;;;;;;;15.82;100.00;101296.08;105644;1264;97946;-85
2023/09/03 07:07:17;;;;;;;12.80;8.00;;;;;;;15.97;100.00;101299.71;105635;1260;98028;-83
2023/09/03 07:10:03;;;;;;;17.60;8.30;;;;;;;16.10;100.00;101300.05;105542;1267;97977;-85
2023/09/03 07:12:48;;;;;;;18.20;8.30;;;;;;;16.22;100.00;101300.27;105547;1259;102072;-85
2023/09/03 07:15:36;;;;;;;10.80;7.40;;;;;;;16.34;99.80;101302.52;105662;1259;99187;-85
2023/09/03 07:18:21;;;;;;;10.80;6.90;;;;;;;16.45;99.40;101306.43;105526;1263;98056;-84
2023/09/03 07:21:07;;;;;;;8.70;6.20;;;;;;;16.56;99.21;101307.09;105601;1266;97964;-84
2023/09/03 07:23:53;;;;;;;8.00;5.90;;;;;;;16.68;98.57;101307.08;105616;1259;98573;-84
2023/09/03 07:26:39;;;;;;;8.30;5.90;;;;;;;16.78;97.85;101304.95;105811;1260;101460;-84
2023/09/03 07:29:24;;;;;;;7.80;6.30;;;;;;;16.88;97.54;101309.92;105601;1266;99153;-84
2023/09/03 07:32:10;;;;;;;7.50;5.90;;;;;;;16.98;98.15;101316.49;105548;1264;97958;-84
2023/09/03 07:34:55;;;;;;;9.60;5.90;;;;;;;17.10;98.21;101321.27;105834;1263;97970;-85
2023/09/03 07:37:42;;;;;;;7.10;5.60;;;;;;;17.19;97.80;101326.95;105702;1267;98518;-85
2023/09/03 07:40:28;;;;;;;9.10;6.10;;;;;;;17.24;96.85;101325.77;105635;1257;101372;-84
2023/09/03 07:43:14;;;;;;;7.30;5.10;;;;;;;17.33;96.73;101330.98;105698;1257;100464;-85
2023/09/03 07:46:00;;;;;;;7.20;5.40;;;;;;;17.39;96.16;101335.92;105548;1266;99026;-86
2023/09/03 07:48:46;;;;;;;9.20;4.60;;;;;;;17.49;95.60;101331.36;105626;1261;98103;-84
2023/09/03 07:51:31;;;;;;;6.40;5.10;;;;;;;17.61;96.24;101328.92;105709;1261;98967;-85
2023/09/03 07:54:17;;;;;;;7.80;5.70;;;;;;;17.73;95.57;101331.04;105601;1260;102720;-84
2023/09/03 07:57:03;;;;;;;6.70;5.00;;;;;;;17.84;95.35;101335.58;105680;1266;100814;-84
2023/09/03 07:59:52;;;;;;;6.00;4.80;;;;;;;17.95;95.31;101332.01;105655;1260;99031;-84
2023/09/03 08:02:38;;;;;;;7.20;4.70;;;;;;;18.07;94.97;101330.31;105861;1260;97978;-84
2023/09/03 08:05:24;;;;;;;7.00;5.20;;;;;;;18.18;94.86;101331.36;106029;1260;98353;-86
2023/09/03 08:08:10;;;;;;;9.60;5.10;;;;;;;18.30;94.98;101326.08;105905;1264;101473;-84
2023/09/03 08:10:57;;;;;;;9.30;4.30;;;;;;;18.44;94.95;101320.72;105958;1267;100394;-84
2023/09/03 08:13:43;;;;;;;7.10;4.30;;;;;;;18.69;94.24;101322.61;106062;1272;98430;-84
2023/09/03 08:16:28;;;;;;;6.80;5.20;;;;;;;18.90;93.67;101322.17;105957;1260;97975;-85
2023/09/03 08:19:14;;;;;;;5.50;4.00;;;;;;;19.08;92.75;101322.95;105947;1267;98056;-86
2023/09/03 08:22:00;;;;;;;8.50;4.80;;;;;;;19.16;91.87;101320.39;105957;1260;101426;-84
2023/09/03 08:24:46;;;;;;;5.20;3.70;;;;;;;19.20;90.88;101316.65;106205;1260;99178;-86
2023/09/03 08:27:31;;;;;;;8.00;4.30;;;;;;;19.25;90.54;101318.88;106041;1259;98559;-86
2023/09/03 08:30:52;;;;;;;5.00;3.50;;;;;;;19.30;89.77;101318.23;106085;1265;98180;-85
2023/09/03 08:33:53;;;;;;;4.70;3.60;;;;;;;19.37;90.16;101319.02;106052;1260;98056;-85
2023/09/03 08:36:45;;;;;;;5.50;3.40;;;;;;;19.46;89.73;101323.93;105819;1259;102709;-86
2023/09/03 08:39:55;;;;;;;6.80;3.30;;;;;;;19.56;88.33;101317.70;106118;1261;99590;-85
2023/09/03 08:43:08;;;;;;;5.60;3.20;;;;;;;19.66;87.86;101318.24;106332;1260;98143;-85
2023/09/03 08:46:09;;;;;;;4.80;3.90;;;;;;;19.73;86.89;101314.01;105878;1259;97970;-85
2023/09/03 08:49:01;;;;;;;8.80;3.80;;;;;;;19.79;86.47;101314.59;106935;1261;98602;-86
2023/09/03 08:51:48;;;;;;;4.40;3.80;;;;;;;19.86;87.20;101315.67;107890;1260;112760;-86
2023/09/03 08:54:40;;;;;;;8.60;3.80;;;;;;;19.97;86.95;101318.25;106031;1267;101601;-86
2023/09/03 08:57:56;;;;;;;3.10;2.80;;;;;;;20.07;86.33;101321.90;106126;1263;98886;-85
2023/09/03 09:00:45;;;;;;;2.90;2.60;;;;;;;20.11;84.61;101327.38;106333;1263;97910;-85
2023/09/03 09:03:33;;;;;;;6.60;3.20;;;;;;;20.11;83.79;101327.22;106048;1263;98001;-86
2023/09/03 09:06:20;;;;;;;3.80;2.90;;;;;;;20.09;83.35;101329.23;106112;1263;102790;-84
2023/09/03 09:09:07;;;;;;;6.20;2.90;;;;;;;20.15;83.86;101327.98;105946;1260;99105;-85
2023/09/03 09:12:02;;;;;;;4.30;2.80;;;;;;;20.23;82.91;101326.92;106136;1265;98495;-86
2023/09/03 09:14:55;;;;;;;5.60;2.80;;;;;;;20.31;82.29;101325.17;106416;1261;97965;-86
2023/09/03 09:17:48;;;;;;;2.90;2.50;;;;;;;20.40;82.39;101326.70;106070;1261;97987;-84
2023/09/03 09:20:40;;;;;;;5.20;2.90;;;;;;;20.50;82.48;101325.88;106199;1264;102785;-84
2023/09/03 09:23:26;;;;;;;3.60;3.20;;;;;;;20.60;82.64;101327.55;107428;1258;99333;-85
2023/09/03 09:26:21;;;;;;;6.80;3.30;;;;;;;20.69;81.80;101324.92;106629;1257;98663;-85
2023/09/03 09:29:06;;;;;;;4.10;2.70;;;;;;;20.72;81.62;101326.59;106084;1257;97904;-85
2023/09/03 09:31:52;;;;;;;3.00;2.30;;;;;;;20.77;80.50;101333.20;106046;1264;97917;-84
2023/09/03 09:34:42;;;;;;;5.90;2.80;;;;;;;20.82;79.69;101333.88;106746;1259;102125;-85
2023/09/03 09:37:48;;;;;;;2.80;2.20;;;;;;;20.87;78.66;101336.36;105992;1260;99160;-86
2023/09/03 09:40:36;;;;;;;3.10;2.30;;;;;;;20.93;78.15;101336.90;106205;1261;98526;-85
2023/09/03 09:43:22;;;;;;;5.00;2.10;;;;;;;20.96;76.74;101336.56;105970;1264;99156;-84
2023/09/03 09:46:07;;;;;;;3.40;2.20;;;;;;;20.98;76.35;101337.48;105998;1259;97892;-84
2023/09/03 09:48:58;;;;;;;2.90;2.30;;;;;;;21.03;76.13;101333.77;106014;1260;101442;-85
2023/09/03 09:51:51;;;;;;;;;;;;;;;21.10;75.97;101334.81;105962;1260;99833;-85
2023/09/03 09:54:41;;;;;;;3.30;2.20;;;;;;;21.13;75.76;101324.16;105965;1263;98451;-85
2023/09/03 09:57:27;;;;;;;3.10;2.50;;;;;;;21.15;75.45;101321.08;105980;1261;97961;-84
2023/09/03 10:00:13;;;;;;;4.30;2.10;;;;;;;21.14;75.42;101320.84;105809;1260;98514;-85
2023/09/03 10:03:15;;;;;;;4.80;2.00;;;;;;;21.06;73.87;101319.46;105960;1263;101396;-85
2023/09/03 10:06:01;;;;;;;2.20;2.00;;;;;;;20.98;73.52;101318.59;105992;1261;99072;-85
2023/09/03 10:08:48;;;;;;;2.70;1.90;;;;;;;20.92;73.45;101317.86;105822;1257;98412;-84
2023/09/03 10:11:34;;;;;;;2.00;1.60;;;;;;;20.88;73.37;101317.55;106026;1257;97890;-84
2023/09/03 10:14:20;;;;;;;2.40;2.20;;;;;;;20.94;74.03;101320.35;105948;1259;99347;-83
2023/09/03 10:17:08;;;;;;;2.80;2.10;;;;;;;21.07;74.74;101319.86;106062;1260;102680;-83
2023/09/03 10:19:58;;;;;;;2.50;2.10;;;;;;;21.23;74.40;101319.15;105943;1263;100451;-83
2023/09/03 10:22:45;;;;;;;3.00;2.30;;;;;;;21.39;75.00;101324.66;106063;1260;97975;-84
2023/09/03 10:25:34;;;;;;;3.00;2.20;;;;;;;21.49;73.43;101327.60;105907;1265;97898;-83
2023/09/03 10:28:22;;;;;;;2.90;2.20;;;;;;;21.40;73.09;101319.02;106265;1259;98483;-84
2023/09/03 10:31:11;;;;;;;3.30;2.00;;;;;;;21.27;73.07;101319.23;106063;1259;101375;-84
2023/09/03 10:33:57;;;;;;;3.40;2.10;;;;;;;21.14;73.00;101320.74;106080;1259;100446;-84
2023/09/03 10:37:05;;;;;;;2.50;2.00;;;;;;;21.06;73.14;101324.91;106182;1259;99011;-84
2023/09/03 10:40:17;;;;;;;3.40;1.80;;;;;;;21.08;73.04;101330.17;106019;1261;97954;-84
2023/09/03 10:43:18;;;;;;;4.30;2.50;;;;;;;21.18;73.57;101325.41;105963;1260;98553;-83
2023/09/03 10:46:05;;;;;;;4.10;2.30;;;;;;;21.28;72.73;101326.34;105969;1263;101401;-85
2023/09/03 10:48:53;;;;;;;3.60;2.10;;;;;;;21.36;71.51;101326.58;106228;1259;99309;-84
2023/09/03 10:51:43;;;;;;;3.10;2.20;;;;;;;21.45;71.64;101322.28;106189;1258;98572;-85
2023/09/03 10:54:29;;;;;;;3.80;2.00;;;;;;;21.56;71.11;101321.70;105981;1260;97945;-85
2023/09/03 10:57:16;;;;;;;2.30;1.90;;;;;;;21.68;71.10;101318.77;105812;1264;98498;-84
2023/09/03 11:00:04;;;;;;;4.40;1.90;;;;;;;21.77;69.82;101319.39;105783;1261;101463;-85
2023/09/03 11:02:50;;;;;;;4.40;1.80;;;;;;;21.72;68.26;101322.97;105997;1259;99165;-85
2023/09/03 11:05:36;;;;;;;3.40;1.50;;;;;;;21.65;68.05;101322.92;105896;1259;97949;-87
2023/09/03 11:08:31;;;;;;;1.90;1.60;;;;;;;21.63;68.11;101324.56;105948;1258;97993;-84
2023/09/03 11:11:22;;;;;;;2.80;1.70;;;;;;;21.70;67.95;101318.91;105672;1259;98057;-84
2023/09/03 11:14:10;;;;;;;;;;;;;;;21.81;68.53;101322.92;105802;1263;101754;-85
2023/09/03 11:16:58;;;;;;;2.40;1.80;;;;;;;21.93;68.45;101326.95;105915;1264;99303;-85
2023/09/03 11:19:44;;;;;;;2.60;1.60;;;;;;;21.97;67.71;101324.83;105817;1263;97974;-85
2023/09/03 11:22:36;;;;;;;2.00;1.50;;;;;;;21.89;66.68;101327.96;106028;1257;98062;-85
2023/09/03 11:25:40;;;;;;;3.10;1.80;;;;;;;21.74;65.89;101328.46;105939;1261;99553;-84
2023/09/03 11:28:26;;;;;;;2.90;1.90;;;;;;;21.58;66.47;101330.14;105817;1260;101437;-85
2023/09/03 11:31:11;;;;;;;2.70;1.70;;;;;;;21.50;67.19;101328.71;105776;1264;99176;-85
2023/09/03 11:33:57;;;;;;;2.10;1.80;;;;;;;21.51;67.95;101326.50;105818;1259;98540;-82
2023/09/03 11:36:42;;;;;;;3.20;2.20;;;;;;;21.62;68.35;101326.52;105939;1263;98473;-83
2023/09/03 11:39:28;;;;;;;2.40;1.80;;;;;;;21.71;67.29;101323.63;106001;1257;97934;-83
2023/09/03 11:42:14;;;;;;;2.30;1.80;;;;;;;21.77;67.50;101320.80;106058;1258;102133;-83
2023/09/03 11:45:01;;;;;;;5.10;2.30;;;;;;;21.85;66.48;101324.31;105796;1258;100065;-82
2023/09/03 11:47:51;;;;;;;2.40;1.50;;;;;;;21.90;66.01;101319.41;105673;1260;99044;-83
2023/09/03 11:50:36;;;;;;;3.30;2.30;;;;;;;21.95;65.55;101311.45;106018;1259;97969;-83
2023/09/03 11:53:22;;;;;;;3.50;1.70;;;;;;;22.00;65.15;101306.73;105868;1264;98077;-83
2023/09/03 11:56:12;;;;;;;3.40;1.70;;;;;;;22.07;64.94;101306.19;105947;1266;101417;-83
2023/09/03 11:59:04;;;;;;;1.70;1.50;;;;;;;22.10;63.36;101305.40;105913;1259;99213;-82
2023/09/03 12:01:51;;;;;;;2.10;1.70;;;;;;;22.16;63.53;101305.30;105867;1259;98006;-82
2023/09/03 12:04:37;;;;;;;3.00;1.60;;;;;;;22.23;63.31;101307.05;106036;1263;98144;-82
2023/09/03 12:07:23;;;;;;;3.70;1.80;;;;;;;22.32;63.38;101310.80;105933;1258;98489;-82
2023/09/03 12:10:09;;;;;;;3.50;1.60;;;;;;;22.34;62.08;101311.49;105905;1257;101395;-81
2023/09/03 12:12:54;;;;;;;1.30;1.20;;;;;;;22.24;61.46;101310.77;105881;1259;100420;-82
2023/09/03 12:15:40;;;;;;;2.00;1.40;;;;;;;22.11;61.64;101314.02;106110;1263;97907;-86
2023/09/03 12:18:26;;;;;;;1.70;1.30;;;;;;;22.03;61.71;101312.67;105779;1259;98451;-80
2023/09/03 12:21:12;;;;;;;1.20;1.10;;;;;;;22.06;60.13;101304.10;105534;1259;97881;-84
2023/09/03 12:23:58;;;;;;;4.00;1.40;;;;;;;22.16;59.79;101308.02;105985;1259;102522;-89
2023/09/03 12:26:44;;;;;;;2.50;1.10;;;;;;;22.24;58.95;101308.60;105740;1262;100416;-84
2023/09/03 12:29:35;;;;;;;1.50;1.30;;;;;;;22.32;58.60;101307.86;105963;1259;99064;-88
2023/09/03 12:32:33;;;;;;;2.70;1.40;;;;;;;22.45;59.07;101308.72;105816;1265;97914;-87
2023/09/03 12:35:19;;;;;;;1.70;1.50;;;;;;;22.54;59.03;101309.04;105932;1259;98392;-88
2023/09/03 12:38:08;;;;;;;2.20;1.60;;;;;;;22.64;58.99;101307.70;106221;1262;102597;-90
2023/09/03 12:40:54;;;;;;;1.60;1.50;;;;;;;22.80;58.96;101307.41;105765;1257;99896;-87
2023/09/03 12:43:41;;;;;;;2.50;1.90;;;;;;;22.91;59.40;101301.14;105806;1263;98652;-87